Airfield :
LOGIN :

Register | Disclaimer

   EN    FR    IT 

 










Legend :    VFR   Marginal VFR   IFR   Intensive IFR   Very Intensive IFR
Visi :
Ceiling :
>= 8 km
>= 3000ft
5 to 8 km
1000 to 3000 ft
1500m to 5 km
500 to 1000 ft
800 to 1500m
200 to 500 ft
< 800m
< 200 ft
Symbols :   Thunderstorms  Fog  Heavy snow  Heavy precipitations  Wind > 20 kt
SIGMETs :     Misc.  Thunderstorms  Icing  Turbulence  Mountain Waves  Volcanic Ashes







- Airport Elevation : 622 ft
- IATA code : BRS
- Download approach charts


EGGD - Bristol Int.

CURRENT METAR :
  • 251820Z 30004KT 9999 SCT030 05/01 Q1015

EXPIRED METARs :
  • 251750Z 29006KT 9999 FEW035CB 04/01 Q1015
  • 251720Z 33010KT 9999 VCSH FEW010 SCT030CB 05/01 Q1015 RERA
  • 251650Z AUTO 35011KT 310V050 9999 FEW041/// SCT047/// //////TCU 08/M01 Q1014
  • 251620Z AUTO 34006KT 300V020 9999 //////CB 07/M02 Q1014
  • 251550Z AUTO 05007KT 010V070 9999 FEW047/// //////CB 07/M01 Q1015
  • 251520Z AUTO 34010KT 9999 //////CB 08/M04 Q1014

TAF TAF EGGD
Valid from the 25 at 18:00 until the 26 at 18:00 UTC


251654Z 2518/2618 35009KT 9999 SCT045
TEMPO 2518/2521 8000 -SHRA
PROB30
TEMPO 2518/2520 SHRAGS
PROB30
TEMPO 2613/2618 7000 -SHRA
ATIS : +44 1275 473 666
No reported NOTAMs for that airfield.



MET'MAP, your aeronautical weather chart ! - Copyright ORBIFLY December 2007 - Disclaimer

ORBIFLY MET'MAP TEAM :

Programming & Development : Alexandra Zaïnal
Concept & Development : Baudouin d'Aumeries
Co-Development & Prog : Marc-Olivier Méhu
Technical & hardware support : Manuel Goepfert

Contact : metmap@orbifly.com




SOURCES & CREDITS :

   NOAA